Time;durP1;ratioP1;P1;durP2;ratioP2;P2;SDS_P1;SDS_P2;PMS_P1;PMS_P2;Temp;Humidity;BMP_temperature;BMP_pressure;BME280_temperature;BME280_humidity;BME280_pressure;Samples;Min_cycle;Max_cycle;Signal;HPM_P1;HPM_P2
2022/12/05 00:00:34;;;;;;;35.78;17.90;;;;;;;5.96;98.86;97909.13;4199277;28;20193;-82
2022/12/05 00:02:37;;;;;;;31.77;16.67;;;;;;;5.97;98.37;97910.78;4196391;28;20242;-83
2022/12/05 00:04:42;;;;;;;30.77;16.77;;;;;;;5.96;98.51;97913.47;4204326;28;20258;-83
2022/12/05 00:06:46;;;;;;;35.17;17.25;;;;;;;5.91;98.33;97916.28;4183607;28;20222;-82
2022/12/05 00:08:49;;;;;;;32.63;16.70;;;;;;;5.89;98.18;97917.28;4200425;28;20233;-83
2022/12/05 00:10:52;;;;;;;38.45;17.45;;;;;;;5.86;97.96;97918.25;4199049;28;20220;-83
2022/12/05 00:12:55;;;;;;;36.90;17.58;;;;;;;5.79;98.31;97931.63;4198294;28;20211;-83
2022/12/05 00:14:58;;;;;;;33.30;15.88;;;;;;;5.74;98.18;97926.69;4200035;28;20206;-83
2022/12/05 00:17:01;;;;;;;33.35;15.70;;;;;;;5.65;98.62;97931.44;4187651;28;20216;-83
2022/12/05 00:19:05;;;;;;;36.33;16.17;;;;;;;5.64;98.92;97934.97;4203005;28;20198;-83
2022/12/05 00:21:15;;;;;;;31.42;14.93;;;;;;;5.60;98.79;97928.28;4187801;28;20285;-82
2022/12/05 00:23:18;;;;;;;36.45;18.08;;;;;;;5.60;99.22;97928.28;4204545;28;20218;-83
2022/12/05 00:25:21;;;;;;;28.65;15.88;;;;;;;5.58;99.24;97932.69;4189623;28;20567;-82
2022/12/05 00:27:24;;;;;;;32.97;16.88;;;;;;;5.53;99.42;97939.84;4204206;28;20750;-83
2022/12/05 00:29:27;;;;;;;36.05;17.08;;;;;;;5.49;99.30;97938.34;4201249;28;20202;-82
2022/12/05 00:31:30;;;;;;;31.95;16.23;;;;;;;5.50;99.50;97941.75;4185513;28;20224;-83
2022/12/05 00:33:33;;;;;;;30.50;16.35;;;;;;;5.46;99.15;97938.50;4188083;28;20209;-83
2022/12/05 00:35:36;;;;;;;32.45;16.38;;;;;;;5.47;99.82;97924.63;4183842;28;20202;-83
2022/12/05 00:37:40;;;;;;;34.55;17.42;;;;;;;5.51;99.65;97928.75;4200427;28;20300;-83
2022/12/05 00:39:43;;;;;;;32.97;17.13;;;;;;;5.53;100.00;97926.91;4200803;28;20817;-83
2022/12/05 00:41:46;;;;;;;31.52;16.23;;;;;;;5.60;99.86;97930.03;4198985;28;20245;-83
2022/12/05 00:43:50;;;;;;;34.05;16.08;;;;;;;5.61;99.69;97935.13;4200239;28;20264;-82
2022/12/05 00:45:53;;;;;;;35.03;15.75;;;;;;;5.60;99.43;97923.94;4195704;28;20219;-83
2022/12/05 00:47:56;;;;;;;36.20;16.77;;;;;;;5.60;99.22;97925.69;4189598;28;20205;-83
2022/12/05 00:49:59;;;;;;;36.03;17.83;;;;;;;5.53;99.23;97934.66;4181336;28;20227;-83
2022/12/05 00:52:02;;;;;;;32.10;17.65;;;;;;;5.48;99.02;97928.06;4202497;28;20213;-83
2022/12/05 00:54:09;;;;;;;31.50;16.23;;;;;;;5.47;98.80;97928.97;4198121;28;20222;-82
2022/12/05 00:56:15;;;;;;;35.75;16.50;;;;;;;5.42;98.91;97926.63;4198615;28;20209;-82
2022/12/05 00:58:18;;;;;;;33.65;15.55;;;;;;;5.44;99.34;97926.56;4183271;28;20219;-83
2022/12/05 01:00:21;;;;;;;33.65;16.70;;;;;;;5.42;98.42;97926.63;4196105;28;20222;-83
2022/12/05 01:02:24;;;;;;;31.13;15.70;;;;;;;5.35;98.12;97927.88;4199500;28;20194;-83
2022/12/05 01:04:27;;;;;;;33.45;16.00;;;;;;;5.34;99.05;97928.78;4198954;28;20252;-83
2022/12/05 01:06:31;;;;;;;31.40;16.13;;;;;;;5.33;98.45;97931.44;4205060;28;20563;-83
2022/12/05 01:08:35;;;;;;;31.05;15.70;;;;;;;5.26;97.72;97936.09;4198587;28;20198;-83
2022/12/05 01:10:39;;;;;;;30.42;16.27;;;;;;;5.25;98.28;97926.66;4198976;28;20226;-83
2022/12/05 01:12:43;;;;;;;26.52;15.45;;;;;;;5.27;98.38;97934.31;4199327;28;20292;-83
2022/12/05 01:14:46;;;;;;;29.23;15.10;;;;;;;5.24;98.44;97945.63;4198432;28;20229;-83
2022/12/05 01:16:50;;;;;;;28.58;14.80;;;;;;;5.25;97.53;97951.66;4196012;28;20221;-82
2022/12/05 01:18:54;;;;;;;27.42;14.48;;;;;;;5.22;98.15;97951.81;4205417;28;20235;-82
2022/12/05 01:20:57;;;;;;;25.33;14.15;;;;;;;5.18;97.76;97953.69;4201058;28;20206;-82
2022/12/05 01:23:00;;;;;;;28.73;14.52;;;;;;;5.17;97.76;97954.63;4201535;28;20307;-82
2022/12/05 01:25:04;;;;;;;29.45;15.35;;;;;;;5.19;98.47;97959.72;4201661;28;20202;-83
2022/12/05 01:27:08;;;;;;;25.33;14.32;;;;;;;5.18;97.63;97964.03;4195081;28;20201;-82
2022/12/05 01:29:13;;;;;;;25.20;14.88;;;;;;;5.12;98.27;97973.03;4198583;28;20197;-82
2022/12/05 01:31:19;;;;;;;28.40;14.70;;;;;;;5.05;97.89;97989.72;4199050;28;20311;-82
2022/12/05 01:33:22;;;;;;;27.70;14.57;;;;;;;4.98;98.24;97986.59;4202151;28;20205;-82
2022/12/05 01:35:25;;;;;;;26.15;14.40;;;;;;;4.93;98.32;97990.31;4204098;28;20229;-82
2022/12/05 01:37:28;;;;;;;31.08;15.20;;;;;;;4.92;98.96;97996.41;4198424;28;20189;-82
2022/12/05 01:39:30;;;;;;;26.15;13.85;;;;;;;4.90;99.12;97991.31;4200282;28;20674;-82
2022/12/05 01:41:37;;;;;;;26.02;13.98;;;;;;;4.94;99.03;97995.41;4200704;28;20247;-82
2022/12/05 01:44:01;;;;;;;27.85;14.05;;;;;;;4.94;98.93;97990.22;4194429;28;20233;-82
2022/12/05 01:46:05;;;;;;;24.13;14.45;;;;;;;4.96;99.21;97992.75;4199846;28;20236;-82
2022/12/05 01:48:12;;;;;;;28.17;14.88;;;;;;;4.93;98.61;97998.91;4184448;28;20235;-82
2022/12/05 01:50:15;;;;;;;28.77;14.68;;;;;;;4.88;98.40;98008.59;4202677;28;20258;-82
2022/12/05 01:52:20;;;;;;;25.10;13.73;;;;;;;4.87;99.51;98012.13;4204143;28;20201;-82
2022/12/05 01:54:24;;;;;;;23.50;13.32;;;;;;;4.91;99.00;98002.47;4196114;28;20205;-82
2022/12/05 01:56:27;;;;;;;25.85;13.40;;;;;;;4.87;97.94;98009.53;4197084;28;20197;-82
2022/12/05 01:58:36;;;;;;;24.65;14.00;;;;;;;4.90;98.11;97996.47;4188262;28;20597;-82
2022/12/05 02:00:40;;;;;;;26.40;14.65;;;;;;;4.92;98.54;97996.41;4198672;28;20734;-82
2022/12/05 02:02:46;;;;;;;25.70;13.40;;;;;;;4.95;98.18;97996.25;4196313;28;20228;-83
2022/12/05 02:04:55;;;;;;;28.15;14.60;;;;;;;5.01;98.16;97990.78;4198081;28;20712;-82
2022/12/05 02:06:58;;;;;;;29.75;14.85;;;;;;;5.07;98.11;97990.50;4198735;28;20259;-81
2022/12/05 02:09:01;;;;;;;26.67;13.57;;;;;;;5.12;97.69;97996.28;4197210;28;20252;-81
2022/12/05 02:11:06;;;;;;;28.15;13.68;;;;;;;5.18;97.55;98005.38;4194703;28;20221;-81
2022/12/05 02:13:22;;;;;;;27.42;14.07;;;;;;;5.22;97.78;98004.34;4199903;28;20258;-81
2022/12/05 02:15:36;;;;;;;28.92;14.98;;;;;;;5.27;97.71;98010.09;4187753;28;20202;-81
2022/12/05 02:17:49;;;;;;;24.70;14.52;;;;;;;5.33;97.94;98009.00;4199957;28;20686;-81
2022/12/05 02:20:03;;;;;;;28.23;15.00;;;;;;;5.36;97.20;98004.50;4199420;28;20214;-82
2022/12/05 02:22:38;;;;;;;25.73;13.23;;;;;;;5.41;96.89;97997.38;4201028;28;20204;-82
2022/12/05 02:25:09;;;;;;;21.83;12.65;;;;;;;5.45;96.74;98004.03;4201644;28;20218;-82
2022/12/05 02:27:32;;;;;;;23.92;12.93;;;;;;;5.49;96.83;98009.88;4194600;28;20197;-83
2022/12/05 02:30:10;;;;;;;23.67;13.40;;;;;;;5.52;96.51;98001.97;4203996;28;20202;-82
2022/12/05 02:32:18;;;;;;;27.13;13.40;;;;;;;5.53;95.69;98014.84;4199694;28;20228;-82
2022/12/05 02:34:26;;;;;;;25.60;13.70;;;;;;;5.55;95.27;98019.94;4203972;28;20663;-82
2022/12/05 02:36:35;;;;;;;24.85;14.05;;;;;;;5.55;95.35;98017.34;4201949;28;20228;-82
2022/12/05 02:38:41;;;;;;;24.90;13.63;;;;;;;5.57;95.66;98008.59;4203999;28;20200;-82
2022/12/05 02:40:51;;;;;;;26.83;14.10;;;;;;;5.58;95.31;98005.13;4202930;28;20201;-82
2022/12/05 02:42:59;;;;;;;22.50;13.23;;;;;;;5.61;94.91;98020.47;4197341;28;20204;-82
2022/12/05 02:45:08;;;;;;;23.98;13.20;;;;;;;5.60;94.50;98018.78;4202328;28;20215;-83
2022/12/05 02:47:15;;;;;;;21.75;13.02;;;;;;;5.58;94.70;98020.63;4194690;28;20206;-82
2022/12/05 02:49:21;;;;;;;24.15;13.25;;;;;;;5.57;94.33;98031.88;4196690;28;20202;-82
2022/12/05 02:51:28;;;;;;;22.63;12.63;;;;;;;5.54;94.13;98039.78;4196436;28;20316;-82
2022/12/05 02:53:31;;;;;;;21.77;12.80;;;;;;;5.51;94.23;98039.13;4193556;28;20719;-81
2022/12/05 02:55:35;;;;;;;23.90;14.75;;;;;;;5.48;93.64;98050.44;4196569;28;20744;-82
2022/12/05 02:57:38;;;;;;;22.42;12.80;;;;;;;5.46;94.48;98048.81;4202642;28;20212;-81
2022/12/05 02:59:41;;;;;;;23.65;12.93;;;;;;;5.45;94.23;98053.16;4200120;28;20579;-81
2022/12/05 03:01:46;;;;;;;29.65;14.20;;;;;;;5.43;94.34;98049.81;4199711;28;20937;-82
2022/12/05 03:03:51;;;;;;;23.00;13.65;;;;;;;5.41;94.03;98051.66;4202645;28;20640;-82
2022/12/05 03:06:00;;;;;;;21.30;13.10;;;;;;;5.40;93.97;98052.56;4198822;28;20217;-82
2022/12/05 03:08:04;;;;;;;20.23;12.73;;;;;;;5.39;93.95;98063.81;4203454;28;20809;-82
2022/12/05 03:10:08;;;;;;;21.75;12.10;;;;;;;5.39;94.20;98061.22;4198498;28;20307;-82
2022/12/05 03:12:15;;;;;;;20.40;13.05;;;;;;;5.35;93.52;98057.13;4200644;28;20833;-82
2022/12/05 03:14:21;;;;;;;21.88;12.70;;;;;;;5.35;93.92;98067.47;4206880;28;20203;-82
2022/12/05 03:16:29;;;;;;;22.60;12.35;;;;;;;5.39;94.06;98057.81;4190239;28;20770;-82
2022/12/05 03:18:35;;;;;;;24.58;13.85;;;;;;;5.40;94.38;98059.50;4200233;28;20214;-82
2022/12/05 03:20:44;;;;;;;21.70;12.45;;;;;;;5.41;94.67;98056.84;4198782;28;20201;-82
2022/12/05 03:22:50;;;;;;;22.77;12.15;;;;;;;5.45;94.46;98052.34;4199842;28;20204;-82
2022/12/05 03:24:53;;;;;;;20.35;12.38;;;;;;;5.48;94.32;98055.59;4207772;28;20210;-82
2022/12/05 03:27:02;;;;;;;16.88;10.90;;;;;;;5.51;94.16;98047.69;4183294;28;20238;-82
2022/12/05 03:29:17;;;;;;;19.23;12.20;;;;;;;5.55;94.26;98049.22;4200591;28;20206;-82
2022/12/05 03:31:33;;;;;;;17.98;10.98;;;;;;;5.58;93.76;98049.09;4203787;28;20221;-82
2022/12/05 03:33:41;;;;;;;17.30;10.93;;;;;;;5.61;93.56;98046.34;4205886;28;20202;-82
2022/12/05 03:35:49;;;;;;;19.95;11.40;;;;;;;5.63;93.50;98041.91;4200724;28;20201;-82
2022/12/05 03:37:57;;;;;;;20.40;10.90;;;;;;;5.62;93.28;98035.06;4184753;28;20650;-82
2022/12/05 03:40:06;;;;;;;22.58;13.27;;;;;;;5.60;93.30;98031.72;4189673;28;20202;-82
2022/12/05 03:42:12;;;;;;;19.45;11.95;;;;;;;5.60;93.25;98035.13;4202883;28;20210;-82
2022/12/05 03:44:19;;;;;;;21.17;12.57;;;;;;;5.61;93.58;98036.00;4206506;28;20223;-82
2022/12/05 03:46:24;;;;;;;20.52;13.13;;;;;;;5.62;94.04;98029.91;4188884;28;20202;-82
2022/12/05 03:48:30;;;;;;;18.63;11.70;;;;;;;5.66;94.34;98052.13;4201030;28;20198;-82
2022/12/05 03:50:35;;;;;;;18.67;11.88;;;;;;;5.68;94.77;98055.44;4214431;28;20283;-82
2022/12/05 03:52:43;;;;;;;22.13;12.40;;;;;;;5.69;94.90;98045.03;4185891;28;20255;-82
2022/12/05 03:55:08;;;;;;;18.40;11.38;;;;;;;5.70;94.79;98058.81;4197737;28;20665;-82
2022/12/05 03:57:15;;;;;;;22.10;12.43;;;;;;;5.71;95.01;98058.75;4185664;28;20265;-82
2022/12/05 03:59:21;;;;;;;18.20;11.70;;;;;;;5.72;95.87;98054.41;4196998;28;20206;-82
2022/12/05 04:01:27;;;;;;;18.67;10.90;;;;;;;5.71;95.19;98058.75;4187791;28;20210;-82
2022/12/05 04:03:38;;;;;;;20.63;12.43;;;;;;;5.72;94.86;98062.16;4189698;28;20210;-81
2022/12/05 04:05:45;;;;;;;22.05;11.88;;;;;;;5.71;94.96;98063.06;4196693;28;20201;-82
2022/12/05 04:07:52;;;;;;;19.42;11.35;;;;;;;5.70;94.93;98066.59;4196580;28;20210;-82
2022/12/05 04:09:58;;;;;;;19.50;11.32;;;;;;;5.73;94.64;98067.25;4196246;28;20210;-82
2022/12/05 04:12:04;;;;;;;18.92;11.05;;;;;;;5.76;94.71;98069.72;4184822;28;20313;-82
2022/12/05 04:14:10;;;;;;;18.85;11.95;;;;;;;5.77;94.62;98052.44;4196139;28;21280;-82
2022/12/05 04:18:42;;;;;;;19.50;11.23;;;;;;;5.73;93.50;98045.75;4197621;28;20212;-82
2022/12/05 04:23:07;;;;;;;19.95;11.52;;;;;;;5.67;93.56;98052.03;4204064;28;20207;-82
2022/12/05 04:27:39;;;;;;;18.05;11.20;;;;;;;5.69;94.73;98055.38;4183524;28;20213;-82
2022/12/05 04:29:46;;;;;;;19.38;11.50;;;;;;;5.71;94.79;98061.34;4196148;28;20260;-81
2022/12/05 04:31:53;;;;;;;18.60;11.13;;;;;;;5.72;95.27;98064.75;4194085;28;20699;-83
2022/12/05 04:34:00;;;;;;;19.88;11.82;;;;;;;5.75;95.26;98067.22;4188669;28;20211;-82
2022/12/05 04:36:08;;;;;;;17.35;10.95;;;;;;;5.76;95.27;98067.13;4199599;28;20197;-82
2022/12/05 04:38:15;;;;;;;18.88;12.20;;;;;;;5.78;95.00;98067.06;4194723;28;20208;-82
2022/12/05 04:40:20;;;;;;;21.48;11.02;;;;;;;5.79;94.78;98067.00;4202488;28;20208;-82
2022/12/05 04:42:26;;;;;;;17.95;11.43;;;;;;;5.80;94.71;98063.50;4195686;28;20194;-82
2022/12/05 04:44:31;;;;;;;19.00;11.23;;;;;;;5.83;94.24;98075.41;4179909;28;20218;-83
2022/12/05 04:46:35;;;;;;;15.95;10.65;;;;;;;5.83;94.98;98078.00;4199022;28;20213;-82
2022/12/05 04:48:40;;;;;;;18.35;10.20;;;;;;;5.84;94.74;98070.16;4200416;28;20648;-81
2022/12/05 04:50:45;;;;;;;17.42;10.50;;;;;;;5.86;94.50;98076.09;4197209;28;20679;-82
2022/12/05 04:52:50;;;;;;;18.15;12.07;;;;;;;5.85;94.64;98082.22;4191664;28;20738;-82
2022/12/05 04:54:57;;;;;;;19.27;11.32;;;;;;;5.89;94.45;98085.47;4205651;28;20292;-82
2022/12/05 04:57:05;;;;;;;21.42;11.93;;;;;;;5.90;94.35;98090.56;4211430;28;20207;-82
2022/12/05 04:59:08;;;;;;;20.25;11.57;;;;;;;5.89;94.02;98080.28;4199560;28;20302;-82
2022/12/05 05:01:14;;;;;;;18.45;11.10;;;;;;;5.88;94.04;98070.84;4195445;28;20348;-82
2022/12/05 05:03:21;;;;;;;17.13;10.30;;;;;;;5.89;94.10;98075.94;4187768;28;20208;-81
2022/12/05 05:05:25;;;;;;;18.95;10.77;;;;;;;5.90;93.79;98085.38;4200616;28;20257;-82
2022/12/05 05:07:28;;;;;;;18.13;11.25;;;;;;;5.91;94.18;98078.44;4200901;28;20206;-81
2022/12/05 05:09:31;;;;;;;16.85;11.00;;;;;;;5.92;94.64;98072.38;4199732;28;20307;-82
2022/12/05 05:11:36;;;;;;;18.10;11.32;;;;;;;5.93;94.57;98081.81;4186596;28;20209;-82
2022/12/05 05:13:39;;;;;;;17.83;10.50;;;;;;;5.93;94.69;98074.06;4200716;28;20607;-82
2022/12/05 05:15:42;;;;;;;18.73;11.52;;;;;;;5.94;94.89;98073.13;4198608;28;20251;-82
2022/12/05 05:17:45;;;;;;;17.23;10.15;;;;;;;5.94;94.47;98078.31;4182068;28;20238;-82
2022/12/05 05:19:48;;;;;;;18.20;10.88;;;;;;;5.94;93.96;98083.47;4200717;28;20198;-82
2022/12/05 05:21:52;;;;;;;17.83;11.13;;;;;;;5.92;94.09;98087.91;4187031;28;20206;-81
2022/12/05 05:23:55;;;;;;;16.13;10.48;;;;;;;5.94;94.12;98086.06;4188942;28;20228;-82
2022/12/05 05:25:58;;;;;;;18.45;10.35;;;;;;;5.95;94.07;98083.41;4193871;28;20233;-82
2022/12/05 05:28:03;;;;;;;16.08;10.48;;;;;;;5.97;93.78;98091.09;4195560;28;20584;-82
2022/12/05 05:30:07;;;;;;;17.73;10.88;;;;;;;5.99;93.89;98094.47;4187731;28;20343;-82
2022/12/05 05:32:10;;;;;;;18.50;10.57;;;;;;;6.01;93.66;98108.16;4194611;28;20211;-82
2022/12/05 05:34:15;;;;;;;16.83;11.07;;;;;;;6.01;94.12;98115.91;4198050;28;20203;-82
2022/12/05 05:36:19;;;;;;;17.65;10.65;;;;;;;6.02;93.46;98123.59;4185717;28;20570;-82
2022/12/05 05:38:22;;;;;;;19.15;10.95;;;;;;;6.00;93.37;98115.09;4200265;28;20201;-82
2022/12/05 05:40:25;;;;;;;18.02;10.65;;;;;;;6.01;93.56;98123.69;4198130;28;20207;-82
2022/12/05 05:42:28;;;;;;;19.02;11.82;;;;;;;5.99;94.35;98120.34;4199687;28;20206;-83
2022/12/05 05:44:33;;;;;;;18.58;12.25;;;;;;;5.98;94.01;98118.66;4194767;28;20209;-82
2022/12/05 05:46:36;;;;;;;19.25;11.43;;;;;;;5.91;93.43;98107.78;4200873;28;20260;-82
2022/12/05 05:48:39;;;;;;;18.27;11.70;;;;;;;5.85;93.25;98102.91;4201892;28;20213;-82
2022/12/05 05:50:42;;;;;;;18.63;11.77;;;;;;;5.84;93.33;98108.16;4196743;28;20236;-83
2022/12/05 05:52:46;;;;;;;18.27;11.45;;;;;;;5.85;93.82;98105.50;4186540;28;20325;-81
2022/12/05 05:54:49;;;;;;;17.80;10.57;;;;;;;5.87;93.52;98108.00;4180743;28;20256;-83
2022/12/05 05:56:52;;;;;;;17.08;11.05;;;;;;;5.85;93.71;98118.44;4196309;28;20245;-82
2022/12/05 05:58:57;;;;;;;17.58;11.02;;;;;;;5.84;93.85;98114.16;4197045;28;20198;-82
2022/12/05 06:01:04;;;;;;;21.75;12.60;;;;;;;5.86;94.11;98119.25;4198339;28;20739;-82
2022/12/05 06:03:08;;;;;;;19.50;11.93;;;;;;;5.89;94.66;98132.03;4197001;28;20468;-82
2022/12/05 06:05:11;;;;;;;17.85;11.57;;;;;;;5.92;94.91;98129.31;4186149;28;20244;-82
2022/12/05 06:07:14;;;;;;;20.45;11.88;;;;;;;5.93;94.62;98128.41;4187423;28;20229;-82
2022/12/05 06:09:17;;;;;;;18.58;11.45;;;;;;;5.94;94.80;98133.50;4197651;28;20205;-81
2022/12/05 06:11:22;;;;;;;16.20;10.48;;;;;;;5.97;95.11;98137.66;4197281;28;20292;-82
2022/12/05 06:13:28;;;;;;;18.60;11.70;;;;;;;5.98;94.38;98135.00;4199687;28;20222;-82
2022/12/05 06:15:31;;;;;;;21.50;12.25;;;;;;;5.99;94.44;98148.81;4202826;28;20560;-81
2022/12/05 06:17:35;;;;;;;18.17;11.32;;;;;;;6.00;94.66;98137.50;4197155;28;20234;-82
2022/12/05 06:19:38;;;;;;;17.90;11.88;;;;;;;6.00;94.35;98153.91;4194548;28;20298;-82
2022/12/05 06:21:41;;;;;;;19.30;11.63;;;;;;;6.02;94.33;98149.47;4187979;28;20241;-82
2022/12/05 06:23:45;;;;;;;19.60;11.65;;;;;;;6.02;94.28;98144.31;4199643;28;20213;-82
2022/12/05 06:25:48;;;;;;;19.88;12.20;;;;;;;6.03;94.14;98137.38;4199434;28;20208;-82
2022/12/05 06:27:51;;;;;;;19.90;12.45;;;;;;;6.01;94.19;98127.09;4196816;28;20285;-82
2022/12/05 06:29:54;;;;;;;18.98;12.02;;;;;;;5.92;93.48;98124.13;4194449;28;20211;-82
2022/12/05 06:31:58;;;;;;;19.27;10.88;;;;;;;5.88;93.99;98132.94;4207498;28;20198;-82
2022/12/05 06:34:04;;;;;;;20.40;12.48;;;;;;;5.81;94.24;98126.41;4201744;28;20213;-82
2022/12/05 06:36:09;;;;;;;20.00;12.43;;;;;;;5.82;94.36;98136.69;4186644;28;20294;-81
2022/12/05 06:38:12;;;;;;;21.25;11.65;;;;;;;5.88;94.92;98140.72;4202256;28;20239;-82
2022/12/05 06:40:15;;;;;;;17.95;10.60;;;;;;;5.90;95.05;98144.09;4201167;28;20570;-82
2022/12/05 06:42:21;;;;;;;17.60;10.80;;;;;;;5.93;95.60;98141.34;4198731;28;20207;-83
2022/12/05 06:44:25;;;;;;;19.85;11.30;;;;;;;5.95;95.85;98145.50;4196894;28;20219;-82
2022/12/05 06:46:28;;;;;;;17.70;10.43;;;;;;;5.96;95.81;98144.59;4186713;28;20631;-82
2022/12/05 06:48:31;;;;;;;15.88;10.60;;;;;;;5.98;95.53;98142.78;4206854;28;20229;-82
2022/12/05 06:50:36;;;;;;;17.90;11.00;;;;;;;5.99;95.79;98144.47;4185903;28;20233;-82
2022/12/05 06:52:39;;;;;;;19.30;10.20;;;;;;;6.01;95.61;98152.16;4204527;28;20205;-82
2022/12/05 06:54:42;;;;;;;16.42;9.55;;;;;;;6.04;95.78;98149.41;4185718;28;20231;-82
2022/12/05 06:56:45;;;;;;;16.75;10.85;;;;;;;6.06;95.21;98155.34;4201135;28;20219;-81
2022/12/05 06:58:51;;;;;;;20.38;12.20;;;;;;;6.05;95.10;98158.84;4183073;28;20307;-82
2022/12/05 07:03:15;;;;;;;17.85;10.55;;;;;;;6.07;95.15;98162.19;4198062;28;20197;-81
2022/12/05 07:05:18;;;;;;;21.30;13.23;;;;;;;6.08;95.57;98166.47;4184058;28;20723;-82
2022/12/05 07:07:23;;;;;;;17.90;11.15;;;;;;;6.10;95.69;98168.91;4202132;28;20197;-83
2022/12/05 07:09:44;;;;;;;20.50;11.63;;;;;;;6.10;95.68;98171.50;4199549;28;20676;-82
2022/12/05 07:11:48;;;;;;;21.30;12.18;;;;;;;6.11;95.08;98173.16;4205407;28;20217;-83
2022/12/05 07:13:51;;;;;;;20.17;11.80;;;;;;;6.12;95.46;98171.41;4199738;28;20252;-83
2022/12/05 07:15:54;;;;;;;23.90;15.68;;;;;;;6.12;95.69;98172.25;4202581;28;20213;-82
2022/12/05 07:17:57;;;;;;;22.77;14.65;;;;;;;6.14;96.14;98177.34;4198719;28;20306;-80
2022/12/05 07:20:00;;;;;;;22.52;13.07;;;;;;;6.15;96.16;98173.84;4202514;28;20208;-82
2022/12/05 07:22:03;;;;;;;19.13;11.82;;;;;;;6.15;95.57;98189.38;4195725;28;20203;-82
2022/12/05 07:24:08;;;;;;;18.17;11.55;;;;;;;6.17;96.08;98210.84;4192004;28;20207;-81
2022/12/05 07:26:12;;;;;;;19.17;10.82;;;;;;;6.17;96.65;98214.28;4185613;28;20219;-82
2022/12/05 07:28:15;;;;;;;18.25;10.82;;;;;;;6.18;96.62;98210.78;4202804;28;20264;-81
2022/12/05 07:30:18;;;;;;;16.90;11.00;;;;;;;6.20;96.26;98214.13;4199821;28;20209;-80
2022/12/05 07:32:21;;;;;;;16.88;10.45;;;;;;;6.21;96.84;98212.38;4186902;28;20234;-81
2022/12/05 07:34:25;;;;;;;22.52;13.30;;;;;;;6.22;96.67;98222.66;4191750;28;20274;-82
2022/12/05 07:36:28;;;;;;;20.60;11.77;;;;;;;6.22;96.58;98217.50;4190385;28;20269;-80
2022/12/05 07:38:31;;;;;;;16.90;10.75;;;;;;;6.25;96.49;98232.84;4185005;28;20207;-81
2022/12/05 07:40:37;;;;;;;18.10;10.98;;;;;;;6.25;95.98;98226.84;4203456;28;20233;-81
2022/12/05 07:42:40;;;;;;;18.77;11.35;;;;;;;6.26;96.52;98233.72;4205013;28;20850;-81
2022/12/05 07:44:43;;;;;;;21.05;12.40;;;;;;;6.26;96.34;98242.31;4203306;28;20209;-80
2022/12/05 07:46:46;;;;;;;15.85;10.57;;;;;;;6.27;95.28;98243.13;4190444;28;20214;-81
2022/12/05 07:48:51;;;;;;;17.40;10.52;;;;;;;6.26;95.36;98244.88;4192941;28;20635;-80
2022/12/05 07:50:54;;;;;;;16.88;11.43;;;;;;;6.27;96.20;98246.56;4198110;28;20204;-81
2022/12/05 07:52:57;;;;;;;20.55;12.45;;;;;;;6.26;96.15;98244.06;4198985;28;20212;-81
2022/12/05 07:55:00;;;;;;;18.40;11.93;;;;;;;6.26;95.59;98237.13;4183997;28;20307;-80
2022/12/05 07:57:04;;;;;;;21.90;12.35;;;;;;;6.26;95.52;98241.47;4182932;28;20221;-82
2022/12/05 07:59:07;;;;;;;20.80;12.77;;;;;;;6.27;95.50;98249.16;4193796;28;20606;-81
2022/12/05 08:01:12;;;;;;;22.77;12.82;;;;;;;6.29;95.38;98236.97;4176858;28;20219;-81
2022/12/05 08:03:15;;;;;;;18.25;12.63;;;;;;;6.29;95.04;98233.56;4202830;28;20294;-82
2022/12/05 08:05:19;;;;;;;19.05;12.52;;;;;;;6.27;94.76;98233.63;4196483;28;20217;-82
2022/12/05 08:07:22;;;;;;;19.88;12.77;;;;;;;6.22;94.83;98227.00;4181876;28;20209;-81
2022/12/05 08:09:26;;;;;;;20.23;12.90;;;;;;;6.12;94.78;98221.44;4178355;28;20676;-81
2022/12/05 08:11:34;;;;;;;23.10;13.75;;;;;;;6.07;95.57;98226.91;4187749;28;20667;-82
2022/12/05 08:13:38;;;;;;;24.80;13.55;;;;;;;6.02;95.97;98228.88;4175036;28;20204;-82
2022/12/05 08:15:41;;;;;;;24.17;13.85;;;;;;;6.01;95.99;98222.03;4184449;28;20324;-82
2022/12/05 08:17:44;;;;;;;24.92;14.43;;;;;;;5.98;96.36;98219.59;4186060;28;20214;-82
2022/12/05 08:19:47;;;;;;;24.80;14.32;;;;;;;6.03;96.59;98225.38;4198528;28;20201;-82
2022/12/05 08:21:51;;;;;;;23.75;13.27;;;;;;;6.02;96.26;98227.13;4206423;28;20208;-82
2022/12/05 08:23:54;;;;;;;19.90;12.18;;;;;;;6.07;96.29;98237.25;4200901;28;20201;-82
2022/12/05 08:26:01;;;;;;;21.90;13.55;;;;;;;6.11;95.82;98245.63;4197978;28;20217;-82
2022/12/05 08:28:05;;;;;;;19.65;11.35;;;;;;;6.15;96.22;98244.59;4188839;28;20713;-81
2022/12/05 08:30:10;;;;;;;18.48;11.30;;;;;;;6.22;96.02;98245.97;4185617;28;20207;-81
2022/12/05 08:32:13;;;;;;;16.85;10.80;;;;;;;6.26;95.83;98244.06;4186766;28;20592;-82
2022/12/05 08:34:18;;;;;;;19.00;11.95;;;;;;;6.32;95.45;98238.59;4199113;28;20217;-83
2022/12/05 08:36:21;;;;;;;69.10;46.42;;;;;;;6.35;95.15;98234.09;4184006;28;20205;-82
2022/12/05 08:38:24;;;;;;;37.25;24.10;;;;;;;6.40;95.51;98239.03;4196404;28;20216;-82
2022/12/05 08:40:28;;;;;;;28.65;18.58;;;;;;;6.46;95.78;98247.34;4201451;28;20215;-81
2022/12/05 08:42:31;;;;;;;26.05;16.85;;;;;;;6.51;95.63;98249.69;4200157;28;20286;-81
2022/12/05 08:44:34;;;;;;;27.85;17.13;;;;;;;6.56;95.53;98257.16;4199719;28;20206;-82
2022/12/05 08:46:39;;;;;;;23.05;13.77;;;;;;;6.58;95.22;98255.34;4200048;28;20198;-81
2022/12/05 08:48:42;;;;;;;21.55;12.32;;;;;;;6.59;95.29;98258.78;4197093;28;20219;-82
2022/12/05 08:50:45;;;;;;;18.52;11.15;;;;;;;6.57;95.73;98256.25;4184897;28;20247;-81
2022/12/05 08:52:48;;;;;;;20.15;12.80;;;;;;;6.57;94.86;98264.03;4189251;28;20876;-81
2022/12/05 08:54:51;;;;;;;22.70;12.43;;;;;;;6.56;95.30;98264.09;4196742;28;20273;-83
2022/12/05 08:56:55;;;;;;;17.33;11.13;;;;;;;6.58;95.67;98268.31;4198618;28;20209;-81
2022/12/05 08:58:58;;;;;;;20.92;12.13;;;;;;;6.58;95.49;98262.25;4179103;28;20234;-80
2022/12/05 09:01:09;;;;;;;18.70;11.90;;;;;;;6.60;95.82;98265.63;4179707;28;20230;-81
2022/12/05 09:03:14;;;;;;;18.50;12.13;;;;;;;6.62;95.41;98264.63;4198483;28;20894;-80
2022/12/05 09:05:18;;;;;;;20.42;12.40;;;;;;;6.63;95.21;98268.91;4198248;28;20273;-80
2022/12/05 09:07:30;;;;;;;19.50;12.32;;;;;;;6.63;95.56;98275.81;4198196;28;20215;-80
2022/12/05 09:09:34;;;;;;;18.77;12.13;;;;;;;6.68;94.85;98279.03;4195623;28;20199;-81
2022/12/05 09:11:39;;;;;;;21.05;12.48;;;;;;;6.74;95.33;98283.91;4197912;28;20234;-82
2022/12/05 09:13:43;;;;;;;20.23;12.90;;;;;;;6.77;95.66;98288.94;4196793;28;20295;-81
2022/12/05 09:15:46;;;;;;;20.30;12.80;;;;;;;6.82;95.07;98297.31;4195478;28;20738;-82
2022/12/05 09:17:49;;;;;;;19.20;11.75;;;;;;;6.83;95.17;98293.81;4198140;28;20215;-83
2022/12/05 09:19:53;;;;;;;19.80;12.73;;;;;;;6.81;94.92;98295.63;4203649;28;20310;-82
2022/12/05 09:21:57;;;;;;;22.17;14.25;;;;;;;6.81;94.83;98301.69;4201644;28;20340;-82
2022/12/05 09:24:00;;;;;;;31.05;20.70;;;;;;;6.83;93.64;98301.59;4200447;28;20253;-81
2022/12/05 09:26:04;;;;;;;68.38;39.95;;;;;;;6.86;94.17;98302.28;4186092;28;20215;-81
2022/12/05 09:28:07;;;;;;;43.63;27.50;;;;;;;6.90;95.14;98310.72;4196648;28;20622;-82
2022/12/05 09:30:10;;;;;;;50.65;31.67;;;;;;;6.92;93.74;98306.31;4183016;28;20204;-81
2022/12/05 09:32:13;;;;;;;32.53;17.67;;;;;;;6.94;94.43;98304.47;4194243;28;20298;-82
2022/12/05 09:34:18;;;;;;;20.60;13.00;;;;;;;6.99;94.40;98312.84;4180546;28;20206;-81
2022/12/05 09:36:25;;;;;;;22.00;14.05;;;;;;;7.03;94.07;98312.63;4184163;28;20340;-81
2022/12/05 09:38:28;;;;;;;21.40;13.60;;;;;;;7.03;93.62;98312.63;4188108;28;20259;-81
2022/12/05 09:40:32;;;;;;;19.77;11.63;;;;;;;7.05;93.42;98315.97;4197940;28;20803;-81
2022/12/05 09:42:40;;;;;;;17.70;12.63;;;;;;;7.04;93.25;98311.72;4201448;28;20220;-81
2022/12/05 09:44:59;;;;;;;20.92;11.77;;;;;;;7.04;93.75;98317.72;4187194;28;20606;-81
2022/12/05 09:47:07;;;;;;;18.67;12.43;;;;;;;7.06;93.54;98313.28;4195124;28;22234;-81
2022/12/05 09:49:11;;;;;;;17.48;11.77;;;;;;;7.09;94.31;98315.72;4183889;28;20224;-81
2022/12/05 09:51:14;;;;;;;17.73;12.13;;;;;;;7.11;93.80;98319.09;4196383;28;20208;-81